sensor_id;sensor_type;location;lat;lon;timestamp;temperature;humidity
27314;DHT22;14800;48.174;9.798;2024-03-25T00:00:16;6.10;78.00
27314;DHT22;14800;48.174;9.798;2024-03-25T00:02:43;6.20;78.00
27314;DHT22;14800;48.174;9.798;2024-03-25T00:05:09;6.20;78.00
27314;DHT22;14800;48.174;9.798;2024-03-25T00:07:35;6.10;77.80
27314;DHT22;14800;48.174;9.798;2024-03-25T00:10:01;6.10;77.80
27314;DHT22;14800;48.174;9.798;2024-03-25T00:12:27;6.10;77.90
27314;DHT22;14800;48.174;9.798;2024-03-25T00:14:52;6.10;78.00
27314;DHT22;14800;48.174;9.798;2024-03-25T00:17:18;6.10;78.10
27314;DHT22;14800;48.174;9.798;2024-03-25T00:19:45;6.00;78.00
27314;DHT22;14800;48.174;9.798;2024-03-25T00:22:17;6.10;78.00
27314;DHT22;14800;48.174;9.798;2024-03-25T00:24:43;6.10;78.00
27314;DHT22;14800;48.174;9.798;2024-03-25T00:27:08;6.00;78.10
27314;DHT22;14800;48.174;9.798;2024-03-25T00:29:34;6.00;78.10
27314;DHT22;14800;48.174;9.798;2024-03-25T00:31:59;6.00;78.10
27314;DHT22;14800;48.174;9.798;2024-03-25T00:34:25;6.00;78.10
27314;DHT22;14800;48.174;9.798;2024-03-25T00:36:50;6.00;78.10
27314;DHT22;14800;48.174;9.798;2024-03-25T00:39:16;6.00;78.10
27314;DHT22;14800;48.174;9.798;2024-03-25T00:41:42;6.00;78.10
27314;DHT22;14800;48.174;9.798;2024-03-25T00:44:08;6.00;78.10
27314;DHT22;14800;48.174;9.798;2024-03-25T00:46:33;6.00;78.20
27314;DHT22;14800;48.174;9.798;2024-03-25T00:48:59;6.00;78.20
27314;DHT22;14800;48.174;9.798;2024-03-25T00:51:24;5.90;78.30
27314;DHT22;14800;48.174;9.798;2024-03-25T00:53:50;5.90;78.30
27314;DHT22;14800;48.174;9.798;2024-03-25T00:56:15;5.90;78.30
27314;DHT22;14800;48.174;9.798;2024-03-25T00:58:41;5.90;78.40
27314;DHT22;14800;48.174;9.798;2024-03-25T01:01:07;5.90;78.40
27314;DHT22;14800;48.174;9.798;2024-03-25T01:03:32;5.80;78.30
27314;DHT22;14800;48.174;9.798;2024-03-25T01:05:59;5.80;78.50
27314;DHT22;14800;48.174;9.798;2024-03-25T01:08:25;5.80;78.60
27314;DHT22;14800;48.174;9.798;2024-03-25T01:10:50;5.80;78.60
27314;DHT22;14800;48.174;9.798;2024-03-25T01:13:16;5.80;78.60
27314;DHT22;14800;48.174;9.798;2024-03-25T01:15:41;5.80;78.60
27314;DHT22;14800;48.174;9.798;2024-03-25T01:18:07;5.70;78.60
27314;DHT22;14800;48.174;9.798;2024-03-25T01:20:33;5.70;78.60
27314;DHT22;14800;48.174;9.798;2024-03-25T01:22:59;5.70;78.70
27314;DHT22;14800;48.174;9.798;2024-03-25T01:25:24;5.70;78.80
27314;DHT22;14800;48.174;9.798;2024-03-25T01:27:50;5.70;78.90
27314;DHT22;14800;48.174;9.798;2024-03-25T01:30:17;5.70;78.90
27314;DHT22;14800;48.174;9.798;2024-03-25T01:32:44;5.70;78.90
27314;DHT22;14800;48.174;9.798;2024-03-25T01:35:11;5.70;79.00
27314;DHT22;14800;48.174;9.798;2024-03-25T01:37:37;5.70;79.00
27314;DHT22;14800;48.174;9.798;2024-03-25T01:40:03;5.70;79.00
27314;DHT22;14800;48.174;9.798;2024-03-25T01:42:30;5.70;78.90
27314;DHT22;14800;48.174;9.798;2024-03-25T01:44:55;5.70;78.90
27314;DHT22;14800;48.174;9.798;2024-03-25T01:47:21;5.60;78.80
27314;DHT22;14800;48.174;9.798;2024-03-25T01:49:47;5.60;78.80
27314;DHT22;14800;48.174;9.798;2024-03-25T01:52:15;5.60;79.00
27314;DHT22;14800;48.174;9.798;2024-03-25T01:54:41;5.50;79.10
27314;DHT22;14800;48.174;9.798;2024-03-25T01:57:07;5.50;79.20
27314;DHT22;14800;48.174;9.798;2024-03-25T01:59:32;5.50;79.40
27314;DHT22;14800;48.174;9.798;2024-03-25T02:01:59;5.40;79.30
27314;DHT22;14800;48.174;9.798;2024-03-25T02:04:25;5.40;79.50
27314;DHT22;14800;48.174;9.798;2024-03-25T02:06:51;5.40;79.60
27314;DHT22;14800;48.174;9.798;2024-03-25T02:09:17;5.30;79.80
27314;DHT22;14800;48.174;9.798;2024-03-25T02:11:43;5.30;79.90
27314;DHT22;14800;48.174;9.798;2024-03-25T02:14:09;5.30;79.90
27314;DHT22;14800;48.174;9.798;2024-03-25T02:16:35;5.30;79.90
27314;DHT22;14800;48.174;9.798;2024-03-25T02:19:00;5.30;79.90
27314;DHT22;14800;48.174;9.798;2024-03-25T02:21:26;5.20;79.90
27314;DHT22;14800;48.174;9.798;2024-03-25T02:23:53;5.20;80.10
27314;DHT22;14800;48.174;9.798;2024-03-25T02:26:21;5.20;80.10
27314;DHT22;14800;48.174;9.798;2024-03-25T02:28:48;5.10;80.00
27314;DHT22;14800;48.174;9.798;2024-03-25T02:31:14;5.10;80.20
27314;DHT22;14800;48.174;9.798;2024-03-25T02:33:39;5.00;80.20
27314;DHT22;14800;48.174;9.798;2024-03-25T02:36:07;5.10;80.30
27314;DHT22;14800;48.174;9.798;2024-03-25T02:38:34;5.00;80.20
27314;DHT22;14800;48.174;9.798;2024-03-25T02:41:00;5.00;80.50
27314;DHT22;14800;48.174;9.798;2024-03-25T02:43:26;4.90;80.50
27314;DHT22;14800;48.174;9.798;2024-03-25T02:45:52;4.90;80.60
27314;DHT22;14800;48.174;9.798;2024-03-25T02:48:17;5.00;80.90
27314;DHT22;14800;48.174;9.798;2024-03-25T02:50:43;4.90;81.60
27314;DHT22;14800;48.174;9.798;2024-03-25T02:53:08;5.00;80.70
27314;DHT22;14800;48.174;9.798;2024-03-25T02:55:34;5.00;80.90
27314;DHT22;14800;48.174;9.798;2024-03-25T02:57:59;5.00;80.90
27314;DHT22;14800;48.174;9.798;2024-03-25T03:00:25;5.00;80.90
27314;DHT22;14800;48.174;9.798;2024-03-25T03:02:50;4.90;80.70
27314;DHT22;14800;48.174;9.798;2024-03-25T03:05:16;4.90;80.70
27314;DHT22;14800;48.174;9.798;2024-03-25T03:07:41;4.90;80.80
27314;DHT22;14800;48.174;9.798;2024-03-25T03:10:07;4.90;80.70
27314;DHT22;14800;48.174;9.798;2024-03-25T03:12:33;4.90;80.70
27314;DHT22;14800;48.174;9.798;2024-03-25T03:14:58;4.80;80.80
27314;DHT22;14800;48.174;9.798;2024-03-25T03:17:24;4.80;80.80
27314;DHT22;14800;48.174;9.798;2024-03-25T03:19:49;4.80;80.80
27314;DHT22;14800;48.174;9.798;2024-03-25T03:22:15;4.70;80.90
27314;DHT22;14800;48.174;9.798;2024-03-25T03:24:40;4.70;81.00
27314;DHT22;14800;48.174;9.798;2024-03-25T03:27:06;4.70;81.10
27314;DHT22;14800;48.174;9.798;2024-03-25T03:29:32;4.70;81.20
27314;DHT22;14800;48.174;9.798;2024-03-25T03:31:57;4.60;81.20
27314;DHT22;14800;48.174;9.798;2024-03-25T03:34:23;4.60;81.30
27314;DHT22;14800;48.174;9.798;2024-03-25T03:36:48;4.60;81.40
27314;DHT22;14800;48.174;9.798;2024-03-25T03:39:15;4.60;81.60
27314;DHT22;14800;48.174;9.798;2024-03-25T03:41:41;4.60;81.60
27314;DHT22;14800;48.174;9.798;2024-03-25T03:44:06;4.60;81.60
27314;DHT22;14800;48.174;9.798;2024-03-25T03:46:32;4.60;81.50
27314;DHT22;14800;48.174;9.798;2024-03-25T03:48:57;4.60;81.40
27314;DHT22;14800;48.174;9.798;2024-03-25T03:51:23;4.50;81.40
27314;DHT22;14800;48.174;9.798;2024-03-25T03:53:48;4.50;81.60
27314;DHT22;14800;48.174;9.798;2024-03-25T03:56:14;4.40;81.60
27314;DHT22;14800;48.174;9.798;2024-03-25T03:58:39;4.50;81.80
27314;DHT22;14800;48.174;9.798;2024-03-25T04:01:14;4.50;81.70
27314;DHT22;14800;48.174;9.798;2024-03-25T04:03:40;4.50;82.10
27314;DHT22;14800;48.174;9.798;2024-03-25T04:06:10;4.50;82.50
27314;DHT22;14800;48.174;9.798;2024-03-25T04:08:36;4.50;81.30
27314;DHT22;14800;48.174;9.798;2024-03-25T04:11:03;4.50;81.30
27314;DHT22;14800;48.174;9.798;2024-03-25T04:13:28;4.50;81.60
27314;DHT22;14800;48.174;9.798;2024-03-25T04:15:54;4.40;81.60
27314;DHT22;14800;48.174;9.798;2024-03-25T04:18:19;4.40;81.60
27314;DHT22;14800;48.174;9.798;2024-03-25T04:20:45;4.40;81.60
27314;DHT22;14800;48.174;9.798;2024-03-25T04:23:10;4.40;81.60
27314;DHT22;14800;48.174;9.798;2024-03-25T04:25:36;4.40;81.70
27314;DHT22;14800;48.174;9.798;2024-03-25T04:28:03;4.40;81.70
27314;DHT22;14800;48.174;9.798;2024-03-25T04:30:29;4.40;81.70
27314;DHT22;14800;48.174;9.798;2024-03-25T04:32:54;4.40;81.80
27314;DHT22;14800;48.174;9.798;2024-03-25T04:35:20;4.40;81.80
27314;DHT22;14800;48.174;9.798;2024-03-25T04:37:45;4.40;81.80
27314;DHT22;14800;48.174;9.798;2024-03-25T04:40:11;4.40;82.00
27314;DHT22;14800;48.174;9.798;2024-03-25T04:42:40;4.40;81.90
27314;DHT22;14800;48.174;9.798;2024-03-25T04:45:06;4.30;81.80
27314;DHT22;14800;48.174;9.798;2024-03-25T04:47:31;4.30;81.80
27314;DHT22;14800;48.174;9.798;2024-03-25T04:49:57;4.30;81.90
27314;DHT22;14800;48.174;9.798;2024-03-25T04:52:22;4.30;82.00
27314;DHT22;14800;48.174;9.798;2024-03-25T04:54:49;4.30;82.00
27314;DHT22;14800;48.174;9.798;2024-03-25T04:57:15;4.30;82.00
27314;DHT22;14800;48.174;9.798;2024-03-25T04:59:41;4.30;82.00
27314;DHT22;14800;48.174;9.798;2024-03-25T05:02:06;4.30;82.00
27314;DHT22;14800;48.174;9.798;2024-03-25T05:04:32;4.30;82.00
27314;DHT22;14800;48.174;9.798;2024-03-25T05:06:58;4.30;82.00
27314;DHT22;14800;48.174;9.798;2024-03-25T05:09:23;4.30;82.80
27314;DHT22;14800;48.174;9.798;2024-03-25T05:11:49;4.30;81.70
27314;DHT22;14800;48.174;9.798;2024-03-25T05:14:14;4.30;81.40
27314;DHT22;14800;48.174;9.798;2024-03-25T05:16:40;4.30;81.30
27314;DHT22;14800;48.174;9.798;2024-03-25T05:19:06;4.20;82.00
27314;DHT22;14800;48.174;9.798;2024-03-25T05:21:32;4.20;81.00
27314;DHT22;14800;48.174;9.798;2024-03-25T05:23:58;4.20;81.00
27314;DHT22;14800;48.174;9.798;2024-03-25T05:26:23;4.20;81.00
27314;DHT22;14800;48.174;9.798;2024-03-25T05:28:56;4.20;80.90
27314;DHT22;14800;48.174;9.798;2024-03-25T05:31:22;4.20;81.00
27314;DHT22;14800;48.174;9.798;2024-03-25T05:33:49;4.20;80.80
27314;DHT22;14800;48.174;9.798;2024-03-25T05:36:15;4.10;80.60
27314;DHT22;14800;48.174;9.798;2024-03-25T05:38:41;4.10;80.60
27314;DHT22;14800;48.174;9.798;2024-03-25T05:41:10;4.20;80.60
27314;DHT22;14800;48.174;9.798;2024-03-25T05:43:36;4.00;80.50
27314;DHT22;14800;48.174;9.798;2024-03-25T05:46:02;4.10;80.70
27314;DHT22;14800;48.174;9.798;2024-03-25T05:48:27;4.10;80.80
27314;DHT22;14800;48.174;9.798;2024-03-25T05:51:02;4.00;80.70
27314;DHT22;14800;48.174;9.798;2024-03-25T05:53:30;4.10;81.10
27314;DHT22;14800;48.174;9.798;2024-03-25T05:55:56;4.10;81.10
27314;DHT22;14800;48.174;9.798;2024-03-25T05:58:22;4.10;81.40
27314;DHT22;14800;48.174;9.798;2024-03-25T06:00:48;4.10;81.50
27314;DHT22;14800;48.174;9.798;2024-03-25T06:03:15;4.10;81.70
27314;DHT22;14800;48.174;9.798;2024-03-25T06:05:41;4.10;81.90
27314;DHT22;14800;48.174;9.798;2024-03-25T06:08:07;4.10;82.90
27314;DHT22;14800;48.174;9.798;2024-03-25T06:10:39;4.10;82.20
27314;DHT22;14800;48.174;9.798;2024-03-25T06:13:05;4.10;82.60
27314;DHT22;14800;48.174;9.798;2024-03-25T06:15:30;4.20;82.50
27314;DHT22;14800;48.174;9.798;2024-03-25T06:17:56;4.20;82.60
27314;DHT22;14800;48.174;9.798;2024-03-25T06:20:21;4.20;82.60
27314;DHT22;14800;48.174;9.798;2024-03-25T06:22:47;4.20;82.60
27314;DHT22;14800;48.174;9.798;2024-03-25T06:25:13;4.30;82.70
27314;DHT22;14800;48.174;9.798;2024-03-25T06:27:38;4.30;82.70
27314;DHT22;14800;48.174;9.798;2024-03-25T06:30:04;4.30;82.80
27314;DHT22;14800;48.174;9.798;2024-03-25T06:32:48;4.30;82.80
27314;DHT22;14800;48.174;9.798;2024-03-25T06:35:32;4.40;82.90
27314;DHT22;14800;48.174;9.798;2024-03-25T06:37:58;4.40;82.90
27314;DHT22;14800;48.174;9.798;2024-03-25T06:40:24;4.50;83.00
27314;DHT22;14800;48.174;9.798;2024-03-25T06:42:49;4.50;83.10
27314;DHT22;14800;48.174;9.798;2024-03-25T06:45:15;4.50;83.20
27314;DHT22;14800;48.174;9.798;2024-03-25T06:47:42;4.50;83.30
27314;DHT22;14800;48.174;9.798;2024-03-25T06:50:08;4.60;83.40
27314;DHT22;14800;48.174;9.798;2024-03-25T06:52:34;4.60;83.30
27314;DHT22;14800;48.174;9.798;2024-03-25T06:54:59;4.60;83.50
27314;DHT22;14800;48.174;9.798;2024-03-25T06:57:25;4.70;83.60
27314;DHT22;14800;48.174;9.798;2024-03-25T06:59:51;4.70;83.70
27314;DHT22;14800;48.174;9.798;2024-03-25T07:02:17;4.70;84.00
27314;DHT22;14800;48.174;9.798;2024-03-25T07:04:42;4.80;84.00
27314;DHT22;14800;48.174;9.798;2024-03-25T07:07:08;4.80;83.90
27314;DHT22;14800;48.174;9.798;2024-03-25T07:09:34;4.80;83.90
27314;DHT22;14800;48.174;9.798;2024-03-25T07:11:59;4.90;84.10
27314;DHT22;14800;48.174;9.798;2024-03-25T07:14:25;4.90;84.10
27314;DHT22;14800;48.174;9.798;2024-03-25T07:16:50;4.90;84.20
27314;DHT22;14800;48.174;9.798;2024-03-25T07:19:16;4.90;84.20
27314;DHT22;14800;48.174;9.798;2024-03-25T07:21:41;5.00;84.60
27314;DHT22;14800;48.174;9.798;2024-03-25T07:24:07;5.00;84.90
27314;DHT22;14800;48.174;9.798;2024-03-25T07:26:33;5.00;84.70
27314;DHT22;14800;48.174;9.798;2024-03-25T07:28:58;5.10;84.60
27314;DHT22;14800;48.174;9.798;2024-03-25T07:31:24;5.10;84.60
27314;DHT22;14800;48.174;9.798;2024-03-25T07:33:50;5.20;84.40
27314;DHT22;14800;48.174;9.798;2024-03-25T07:36:16;5.20;84.20
27314;DHT22;14800;48.174;9.798;2024-03-25T07:38:42;5.20;84.30
27314;DHT22;14800;48.174;9.798;2024-03-25T07:41:08;5.20;84.00
27314;DHT22;14800;48.174;9.798;2024-03-25T07:43:34;5.30;84.00
27314;DHT22;14800;48.174;9.798;2024-03-25T07:46:00;5.30;83.90
27314;DHT22;14800;48.174;9.798;2024-03-25T07:48:25;5.40;84.00
27314;DHT22;14800;48.174;9.798;2024-03-25T07:50:51;5.40;84.40
27314;DHT22;14800;48.174;9.798;2024-03-25T07:53:16;5.50;84.30
27314;DHT22;14800;48.174;9.798;2024-03-25T07:55:42;5.50;84.20
27314;DHT22;14800;48.174;9.798;2024-03-25T07:58:07;5.60;84.00
27314;DHT22;14800;48.174;9.798;2024-03-25T08:00:33;5.60;83.80
27314;DHT22;14800;48.174;9.798;2024-03-25T08:03:00;5.70;83.90
27314;DHT22;14800;48.174;9.798;2024-03-25T08:05:25;5.70;83.70
27314;DHT22;14800;48.174;9.798;2024-03-25T08:07:51;5.80;83.70
27314;DHT22;14800;48.174;9.798;2024-03-25T08:10:17;5.90;83.70
27314;DHT22;14800;48.174;9.798;2024-03-25T08:12:43;6.00;83.40
27314;DHT22;14800;48.174;9.798;2024-03-25T08:15:08;6.00;83.20
27314;DHT22;14800;48.174;9.798;2024-03-25T08:17:34;6.10;82.90
27314;DHT22;14800;48.174;9.798;2024-03-25T08:19:59;6.20;82.80
27314;DHT22;14800;48.174;9.798;2024-03-25T08:22:25;6.30;82.80
27314;DHT22;14800;48.174;9.798;2024-03-25T08:24:51;6.40;82.60
27314;DHT22;14800;48.174;9.798;2024-03-25T08:27:16;6.50;82.50
27314;DHT22;14800;48.174;9.798;2024-03-25T08:29:42;6.60;82.50
27314;DHT22;14800;48.174;9.798;2024-03-25T08:32:07;6.60;82.30
27314;DHT22;14800;48.174;9.798;2024-03-25T08:34:33;6.70;82.30
27314;DHT22;14800;48.174;9.798;2024-03-25T08:36:58;6.80;82.20
27314;DHT22;14800;48.174;9.798;2024-03-25T08:39:24;6.90;82.20
27314;DHT22;14800;48.174;9.798;2024-03-25T08:41:50;7.00;82.00
27314;DHT22;14800;48.174;9.798;2024-03-25T08:44:15;7.10;81.80
27314;DHT22;14800;48.174;9.798;2024-03-25T08:46:41;7.20;81.50
27314;DHT22;14800;48.174;9.798;2024-03-25T08:49:06;7.20;81.20
27314;DHT22;14800;48.174;9.798;2024-03-25T08:51:32;7.30;80.90
27314;DHT22;14800;48.174;9.798;2024-03-25T08:53:59;7.40;80.60
27314;DHT22;14800;48.174;9.798;2024-03-25T08:56:24;7.40;80.30
27314;DHT22;14800;48.174;9.798;2024-03-25T08:58:50;7.50;80.00
27314;DHT22;14800;48.174;9.798;2024-03-25T09:01:18;7.60;80.00
27314;DHT22;14800;48.174;9.798;2024-03-25T09:03:43;7.70;79.70
27314;DHT22;14800;48.174;9.798;2024-03-25T09:06:09;7.80;79.30
27314;DHT22;14800;48.174;9.798;2024-03-25T09:08:35;7.90;78.70
27314;DHT22;14800;48.174;9.798;2024-03-25T09:11:21;8.00;78.40
27314;DHT22;14800;48.174;9.798;2024-03-25T09:13:50;8.10;78.30
27314;DHT22;14800;48.174;9.798;2024-03-25T09:16:15;8.20;78.00
27314;DHT22;14800;48.174;9.798;2024-03-25T09:18:41;8.30;77.40
27314;DHT22;14800;48.174;9.798;2024-03-25T09:21:06;8.30;76.80
27314;DHT22;14800;48.174;9.798;2024-03-25T09:23:32;8.40;76.60
27314;DHT22;14800;48.174;9.798;2024-03-25T09:25:58;8.50;76.70
27314;DHT22;14800;48.174;9.798;2024-03-25T09:28:23;8.60;74.90
27314;DHT22;14800;48.174;9.798;2024-03-25T09:30:49;8.70;74.20
27314;DHT22;14800;48.174;9.798;2024-03-25T09:33:15;8.80;73.00
27314;DHT22;14800;48.174;9.798;2024-03-25T09:35:40;8.90;73.10
27314;DHT22;14800;48.174;9.798;2024-03-25T09:38:06;8.90;72.50
27314;DHT22;14800;48.174;9.798;2024-03-25T09:40:34;9.00;71.40
27314;DHT22;14800;48.174;9.798;2024-03-25T09:43:02;9.00;70.40
27314;DHT22;14800;48.174;9.798;2024-03-25T09:45:29;9.10;69.20
27314;DHT22;14800;48.174;9.798;2024-03-25T09:47:55;9.10;68.10
27314;DHT22;14800;48.174;9.798;2024-03-25T09:50:21;9.10;69.30
27314;DHT22;14800;48.174;9.798;2024-03-25T09:52:50;9.10;69.60
27314;DHT22;14800;48.174;9.798;2024-03-25T09:55:17;9.10;68.70
27314;DHT22;14800;48.174;9.798;2024-03-25T09:57:43;9.20;69.60
27314;DHT22;14800;48.174;9.798;2024-03-25T10:00:09;9.20;70.00
27314;DHT22;14800;48.174;9.798;2024-03-25T10:02:39;9.20;68.70
27314;DHT22;14800;48.174;9.798;2024-03-25T10:05:06;9.30;68.80
27314;DHT22;14800;48.174;9.798;2024-03-25T10:07:32;9.30;68.00
27314;DHT22;14800;48.174;9.798;2024-03-25T10:09:58;9.40;68.50
27314;DHT22;14800;48.174;9.798;2024-03-25T10:12:24;9.50;69.30
27314;DHT22;14800;48.174;9.798;2024-03-25T10:14:50;9.50;69.30
27314;DHT22;14800;48.174;9.798;2024-03-25T10:17:16;9.60;68.70
27314;DHT22;14800;48.174;9.798;2024-03-25T10:19:41;9.70;67.80
27314;DHT22;14800;48.174;9.798;2024-03-25T10:22:08;9.80;67.60
27314;DHT22;14800;48.174;9.798;2024-03-25T10:24:41;9.80;67.60
27314;DHT22;14800;48.174;9.798;2024-03-25T10:27:20;9.90;66.80
27314;DHT22;14800;48.174;9.798;2024-03-25T10:29:47;9.90;66.90
27314;DHT22;14800;48.174;9.798;2024-03-25T10:32:15;10.00;67.00
27314;DHT22;14800;48.174;9.798;2024-03-25T10:34:41;10.00;66.20
27314;DHT22;14800;48.174;9.798;2024-03-25T10:37:09;10.10;66.30
27314;DHT22;14800;48.174;9.798;2024-03-25T10:39:39;10.10;66.10
27314;DHT22;14800;48.174;9.798;2024-03-25T10:42:13;10.10;65.50
27314;DHT22;14800;48.174;9.798;2024-03-25T10:44:38;10.10;65.50
27314;DHT22;14800;48.174;9.798;2024-03-25T10:47:05;10.20;64.10
27314;DHT22;14800;48.174;9.798;2024-03-25T10:49:45;10.20;63.20
27314;DHT22;14800;48.174;9.798;2024-03-25T10:52:14;10.20;62.70
27314;DHT22;14800;48.174;9.798;2024-03-25T10:54:42;10.20;64.10
27314;DHT22;14800;48.174;9.798;2024-03-25T10:57:09;10.20;62.70
27314;DHT22;14800;48.174;9.798;2024-03-25T10:59:36;10.20;62.90
27314;DHT22;14800;48.174;9.798;2024-03-25T11:02:09;10.20;61.30
27314;DHT22;14800;48.174;9.798;2024-03-25T11:04:37;10.20;60.30
27314;DHT22;14800;48.174;9.798;2024-03-25T11:07:09;10.20;61.20
27314;DHT22;14800;48.174;9.798;2024-03-25T11:09:36;10.30;61.80
27314;DHT22;14800;48.174;9.798;2024-03-25T11:12:02;10.30;62.70
27314;DHT22;14800;48.174;9.798;2024-03-25T11:14:28;10.40;62.80
27314;DHT22;14800;48.174;9.798;2024-03-25T11:16:54;10.40;62.00
27314;DHT22;14800;48.174;9.798;2024-03-25T11:19:21;10.50;61.60
27314;DHT22;14800;48.174;9.798;2024-03-25T11:21:50;10.60;62.00
27314;DHT22;14800;48.174;9.798;2024-03-25T11:24:27;10.60;62.10
27314;DHT22;14800;48.174;9.798;2024-03-25T11:26:53;10.70;60.80
27314;DHT22;14800;48.174;9.798;2024-03-25T11:29:19;10.80;61.90
27314;DHT22;14800;48.174;9.798;2024-03-25T11:31:45;10.90;61.30
27314;DHT22;14800;48.174;9.798;2024-03-25T11:34:10;11.00;60.70
27314;DHT22;14800;48.174;9.798;2024-03-25T11:36:36;11.00;61.10
27314;DHT22;14800;48.174;9.798;2024-03-25T11:39:03;11.10;61.00
27314;DHT22;14800;48.174;9.798;2024-03-25T11:41:33;11.20;60.70
27314;DHT22;14800;48.174;9.798;2024-03-25T11:43:59;11.30;60.30
27314;DHT22;14800;48.174;9.798;2024-03-25T11:46:25;11.40;60.50
27314;DHT22;14800;48.174;9.798;2024-03-25T11:48:52;11.50;60.00
27314;DHT22;14800;48.174;9.798;2024-03-25T11:51:18;11.50;59.40
27314;DHT22;14800;48.174;9.798;2024-03-25T11:53:44;11.60;59.30
27314;DHT22;14800;48.174;9.798;2024-03-25T11:56:11;11.70;59.40
27314;DHT22;14800;48.174;9.798;2024-03-25T11:58:37;11.70;59.00
27314;DHT22;14800;48.174;9.798;2024-03-25T12:01:04;11.80;59.00
27314;DHT22;14800;48.174;9.798;2024-03-25T12:03:29;11.80;58.60
27314;DHT22;14800;48.174;9.798;2024-03-25T12:05:56;11.90;58.60
27314;DHT22;14800;48.174;9.798;2024-03-25T12:08:22;11.90;58.30
27314;DHT22;14800;48.174;9.798;2024-03-25T12:10:51;12.00;58.00
27314;DHT22;14800;48.174;9.798;2024-03-25T12:13:37;12.00;58.00
27314;DHT22;14800;48.174;9.798;2024-03-25T12:16:06;12.10;57.40
27314;DHT22;14800;48.174;9.798;2024-03-25T12:18:33;12.10;57.00
27314;DHT22;14800;48.174;9.798;2024-03-25T12:21:00;12.10;57.10
27314;DHT22;14800;48.174;9.798;2024-03-25T12:23:29;12.00;57.10
27314;DHT22;14800;48.174;9.798;2024-03-25T12:25:55;12.10;56.90
27314;DHT22;14800;48.174;9.798;2024-03-25T12:28:21;12.10;57.30
27314;DHT22;14800;48.174;9.798;2024-03-25T12:30:51;12.10;56.80
27314;DHT22;14800;48.174;9.798;2024-03-25T12:33:17;12.10;56.50
27314;DHT22;14800;48.174;9.798;2024-03-25T12:35:47;12.20;56.60
27314;DHT22;14800;48.174;9.798;2024-03-25T12:38:30;12.20;55.90
27314;DHT22;14800;48.174;9.798;2024-03-25T12:41:10;12.20;55.50
27314;DHT22;14800;48.174;9.798;2024-03-25T12:43:41;12.30;55.60
27314;DHT22;14800;48.174;9.798;2024-03-25T12:46:07;12.30;56.20
27314;DHT22;14800;48.174;9.798;2024-03-25T12:48:34;12.30;55.80
27314;DHT22;14800;48.174;9.798;2024-03-25T12:51:00;12.30;55.60
27314;DHT22;14800;48.174;9.798;2024-03-25T12:53:26;12.30;55.20
27314;DHT22;14800;48.174;9.798;2024-03-25T12:55:52;12.30;54.90
27314;DHT22;14800;48.174;9.798;2024-03-25T12:58:18;12.20;54.80
27314;DHT22;14800;48.174;9.798;2024-03-25T13:00:43;12.20;54.70
27314;DHT22;14800;48.174;9.798;2024-03-25T13:03:10;12.20;54.10
27314;DHT22;14800;48.174;9.798;2024-03-25T13:05:36;12.20;54.60
27314;DHT22;14800;48.174;9.798;2024-03-25T13:08:02;12.20;54.70
27314;DHT22;14800;48.174;9.798;2024-03-25T13:10:29;12.20;54.40
27314;DHT22;14800;48.174;9.798;2024-03-25T13:12:55;12.20;54.30
27314;DHT22;14800;48.174;9.798;2024-03-25T13:15:20;12.20;53.40
27314;DHT22;14800;48.174;9.798;2024-03-25T13:17:46;12.20;54.00
27314;DHT22;14800;48.174;9.798;2024-03-25T13:20:12;12.20;54.40
27314;DHT22;14800;48.174;9.798;2024-03-25T13:22:38;12.20;53.40
27314;DHT22;14800;48.174;9.798;2024-03-25T13:25:05;12.20;53.80
27314;DHT22;14800;48.174;9.798;2024-03-25T13:27:31;12.20;53.30
27314;DHT22;14800;48.174;9.798;2024-03-25T13:29:56;12.20;53.60
27314;DHT22;14800;48.174;9.798;2024-03-25T13:32:22;12.20;54.30
27314;DHT22;14800;48.174;9.798;2024-03-25T13:34:49;12.20;54.80
27314;DHT22;14800;48.174;9.798;2024-03-25T13:37:14;12.20;55.00
27314;DHT22;14800;48.174;9.798;2024-03-25T13:39:40;12.30;55.10
27314;DHT22;14800;48.174;9.798;2024-03-25T13:42:06;12.30;54.80
27314;DHT22;14800;48.174;9.798;2024-03-25T13:44:31;12.40;55.10
27314;DHT22;14800;48.174;9.798;2024-03-25T13:46:57;12.40;54.10
27314;DHT22;14800;48.174;9.798;2024-03-25T13:49:22;12.50;53.90
27314;DHT22;14800;48.174;9.798;2024-03-25T13:51:51;12.50;54.00
27314;DHT22;14800;48.174;9.798;2024-03-25T13:54:21;12.50;53.70
27314;DHT22;14800;48.174;9.798;2024-03-25T13:56:46;12.60;54.30
27314;DHT22;14800;48.174;9.798;2024-03-25T13:59:12;12.60;54.00
27314;DHT22;14800;48.174;9.798;2024-03-25T14:01:38;12.70;54.00
27314;DHT22;14800;48.174;9.798;2024-03-25T14:04:03;12.70;54.10
27314;DHT22;14800;48.174;9.798;2024-03-25T14:06:29;12.70;54.00
27314;DHT22;14800;48.174;9.798;2024-03-25T14:08:55;12.80;54.00
27314;DHT22;14800;48.174;9.798;2024-03-25T14:11:20;12.80;53.80
27314;DHT22;14800;48.174;9.798;2024-03-25T14:13:46;12.90;53.70
27314;DHT22;14800;48.174;9.798;2024-03-25T14:16:12;12.80;53.50
27314;DHT22;14800;48.174;9.798;2024-03-25T14:18:38;12.90;53.30
27314;DHT22;14800;48.174;9.798;2024-03-25T14:21:03;12.90;53.10
27314;DHT22;14800;48.174;9.798;2024-03-25T14:23:29;12.90;53.00
27314;DHT22;14800;48.174;9.798;2024-03-25T14:25:54;12.90;52.90
27314;DHT22;14800;48.174;9.798;2024-03-25T14:28:20;12.90;52.80
27314;DHT22;14800;48.174;9.798;2024-03-25T14:30:45;12.90;52.70
27314;DHT22;14800;48.174;9.798;2024-03-25T14:33:11;12.90;52.60
27314;DHT22;14800;48.174;9.798;2024-03-25T14:35:38;12.90;52.30
27314;DHT22;14800;48.174;9.798;2024-03-25T14:38:04;12.90;52.50
27314;DHT22;14800;48.174;9.798;2024-03-25T14:40:29;12.90;52.40
27314;DHT22;14800;48.174;9.798;2024-03-25T14:42:55;12.90;52.40
27314;DHT22;14800;48.174;9.798;2024-03-25T14:45:21;12.90;52.60
27314;DHT22;14800;48.174;9.798;2024-03-25T14:47:46;12.90;52.50
27314;DHT22;14800;48.174;9.798;2024-03-25T14:50:12;12.90;52.60
27314;DHT22;14800;48.174;9.798;2024-03-25T14:52:39;12.80;52.60
27314;DHT22;14800;48.174;9.798;2024-03-25T14:55:04;12.90;52.60
27314;DHT22;14800;48.174;9.798;2024-03-25T14:57:30;12.90;52.50
27314;DHT22;14800;48.174;9.798;2024-03-25T14:59:56;13.00;52.50
27314;DHT22;14800;48.174;9.798;2024-03-25T15:02:21;12.90;52.50
27314;DHT22;14800;48.174;9.798;2024-03-25T15:04:47;13.00;52.50
27314;DHT22;14800;48.174;9.798;2024-03-25T15:07:13;13.00;52.40
27314;DHT22;14800;48.174;9.798;2024-03-25T15:09:39;13.00;52.30
27314;DHT22;14800;48.174;9.798;2024-03-25T15:12:05;13.00;52.30
27314;DHT22;14800;48.174;9.798;2024-03-25T15:14:31;13.10;52.20
27314;DHT22;14800;48.174;9.798;2024-03-25T15:16:57;13.10;52.20
27314;DHT22;14800;48.174;9.798;2024-03-25T15:19:25;13.10;51.90
27314;DHT22;14800;48.174;9.798;2024-03-25T15:21:52;13.10;52.10
27314;DHT22;14800;48.174;9.798;2024-03-25T15:24:17;13.10;52.20
27314;DHT22;14800;48.174;9.798;2024-03-25T15:26:43;13.10;52.30
27314;DHT22;14800;48.174;9.798;2024-03-25T15:29:08;13.10;52.40
27314;DHT22;14800;48.174;9.798;2024-03-25T15:31:34;13.10;52.20
27314;DHT22;14800;48.174;9.798;2024-03-25T15:34:00;13.10;52.10